Anchorage, Alaska
Current Conditions -  °F | °C
As of 2:53 AM on Thursday 23 Oct 2014 (Local Time) from PANC Reporting Station
Clear Clear  
Wind Chill: 27°   Ceiling: Unl
Heat Index: 27°   Visibility: 10mi
Dew Point: 21°   Wind: 0mph
Humidity: 78%   Direction: NA
Pressure: 29.57"   Gusts: NA
Location:  61.16°N, 150.01°W
Report Text: PANC 231053Z 00000KT 10SM CLR M03/M06 A2957 RMK AO2 SLP016 T10281061
Loading
Personal Weather Stations






























Interactive Weather Map New forecast layout! Learn more

10-Day Weather Forecast

Advertisements
Track Severe Weather on mobile